Coastal Messenger — CFL9726 — position and weather

sailwx.info

Track history (hours):
 
Tides and Currents Weather Stations Pressure Air Temp Water Temp Dewpoint Dewpoint Depression Visibility Wind Speed Wind Dir Waves Ship Positions

Coastal Messenger

Last reported at 2017-Jan-22 22:32 UTC. Time now 2017-Jan-23 06:26 UTC.
Position N 48°35' W 122°56'.

Length 16 m.

Type: Pleasure craft. MMSI: 316016342.

Date/timePositionNaut miles runAvg speedWind from/ knotsBaromVisibWave heightAir tempDewpointWater temp
2017-Jan-22 22:32N 48°35' W 122°56'0 0.0
2017-Jan-22 20:32N 48°35' W 122°56'2 0.6
2017-Jan-22 17:22N 48°36' W 122°58'4 4.7
2017-Jan-22 16:33N 48°32' W 123°01'0 0.1
2017-Jan-22 15:32N 48°32' W 123°01'0 0.0
2017-Jan-22 14:32N 48°32' W 123°01'0 0.0
2017-Jan-22 13:32N 48°32' W 123°01'0 0.0
2017-Jan-22 12:32N 48°32' W 123°01'0 0.0
2017-Jan-22 11:32N 48°32' W 123°01'0 0.0
2017-Jan-22 10:32N 48°32' W 123°01'0 0.0
2017-Jan-22 09:32N 48°32' W 123°01'0 0.0
2017-Jan-22 08:32N 48°32' W 123°01'0 0.0
2017-Jan-22 07:32N 48°32' W 123°01'0 0.0
2017-Jan-22 06:32N 48°32' W 123°01'0 0.0
2017-Jan-22 05:32N 48°32' W 123°01'0 0.0
2017-Jan-22 04:32N 48°32' W 123°01'0 0.0
2017-Jan-22 03:32N 48°32' W 123°01'0 0.0
2017-Jan-22 02:32N 48°32' W 123°01'0 0.0
2017-Jan-22 01:32N 48°32' W 123°01'0 0.0
2017-Jan-22 00:32N 48°32' W 123°01'0 0.0
2017-Jan-21 23:32N 48°32' W 123°01'0 0.0
2017-Jan-21 22:32N 48°32' W 123°01'0 0.0
2017-Jan-21 21:32N 48°32' W 123°01'0 0.0
2017-Jan-21 20:32N 48°32' W 123°01'0 0.0
2017-Jan-21 19:32N 48°32' W 123°01'0 0.0
2017-Jan-21 18:32N 48°32' W 123°01'0 0.0
2017-Jan-21 17:32N 48°32' W 123°01'0 0.0
2017-Jan-21 16:32N 48°32' W 123°01'0 0.0
2017-Jan-21 15:32N 48°32' W 123°01'0 0.0
2017-Jan-21 14:32N 48°32' W 123°01'0 0.0
2017-Jan-21 13:29N 48°32' W 123°01'0 0.0
2017-Jan-21 12:32N 48°32' W 123°01'0 0.0
2017-Jan-21 11:32N 48°32' W 123°01'0 0.0
2017-Jan-21 10:32N 48°32' W 123°01'0 0.0
2017-Jan-21 09:32N 48°32' W 123°01'0 0.0
2017-Jan-21 08:32N 48°32' W 123°01'0 0.0
2017-Jan-21 07:32N 48°32' W 123°01'0 0.0
2017-Jan-21 06:32N 48°32' W 123°01'0 0.0
2017-Jan-21 05:29N 48°32' W 123°01'0 0.0
2017-Jan-21 04:32N 48°32' W 123°01'0 0.0
2017-Jan-21 03:32N 48°32' W 123°01'0 0.0
2017-Jan-21 02:32N 48°32' W 123°01'0 0.0
2017-Jan-21 01:32N 48°32' W 123°01'0 0.0
2017-Jan-21 00:32N 48°32' W 123°01'0 0.0
2017-Jan-20 23:33N 48°32' W 123°01'0 0.0
2017-Jan-20 22:33N 48°32' W 123°01'0 0.0
2017-Jan-20 21:30N 48°32' W 123°01'0 0.0
2017-Jan-20 20:33N 48°32' W 123°01'0 0.0
2017-Jan-20 19:33N 48°32' W 123°01'0 0.0
2017-Jan-20 18:33N 48°32' W 123°01'0 0.0
2017-Jan-20 17:33N 48°32' W 123°01'0 0.0
2017-Jan-20 16:33N 48°32' W 123°01'0 0.0
2017-Jan-20 15:33N 48°32' W 123°01'0 0.0
2017-Jan-20 14:33N 48°32' W 123°01'0 0.0
2017-Jan-20 13:33N 48°32' W 123°01'0 0.0
2017-Jan-20 12:33N 48°32' W 123°01'0 0.0
2017-Jan-20 11:33N 48°32' W 123°01'0 0.0
2017-Jan-20 10:33N 48°32' W 123°01'0 0.0
2017-Jan-20 09:33N 48°32' W 123°01'0 0.0
2017-Jan-20 08:33N 48°32' W 123°01'0 0.0
2017-Jan-20 07:33N 48°32' W 123°01'0 0.0
2017-Jan-20 06:33N 48°32' W 123°01'0 0.0
2017-Jan-20 05:30N 48°32' W 123°01'0 0.0
2017-Jan-20 04:33N 48°32' W 123°01'0 0.0
2017-Jan-20 03:33N 48°32' W 123°01'0 0.0
2017-Jan-20 02:33N 48°32' W 123°01'0 0.0
2017-Jan-20 01:33N 48°32' W 123°01'0 0.0
2017-Jan-20 00:33N 48°32' W 123°01'0 0.0
2017-Jan-19 23:33N 48°32' W 123°01'0 0.0
2017-Jan-19 22:33N 48°32' W 123°01'0 0.0
2017-Jan-19 21:33N 48°32' W 123°01'0 0.1
2017-Jan-19 20:32N 48°32' W 123°01'1 1.5
2017-Jan-19 19:32N 48°34' W 123°01'26 0.6
2017-Jan-17 21:30N 48°51' W 123°30'0 0.0
2017-Jan-17 20:30N 48°51' W 123°30'0 0.0
2017-Jan-17 19:30N 48°51' W 123°30'0 0.0
2017-Jan-17 18:24N 48°51' W 123°30'0 0.0
2017-Jan-17 17:24N 48°51' W 123°30'0 0.0
2017-Jan-17 16:06N 48°51' W 123°30'0 0.0
2017-Jan-17 15:30N 48°51' W 123°30'0 0.0
2017-Jan-17 14:33N 48°51' W 123°30'0 0.0
2017-Jan-17 13:30N 48°51' W 123°30'0 0.0
2017-Jan-17 12:30N 48°51' W 123°30'0 0.0
2017-Jan-17 11:30N 48°51' W 123°30'0 0.0
2017-Jan-17 10:30N 48°51' W 123°30'0 0.0
2017-Jan-17 09:30N 48°51' W 123°30'0 0.0
2017-Jan-17 08:30N 48°51' W 123°30'0 0.0
2017-Jan-17 07:31N 48°51' W 123°30'0 0.0
2017-Jan-17 06:30N 48°51' W 123°30'0 0.0
2017-Jan-17 05:30N 48°51' W 123°30'0 0.0
2017-Jan-17 04:31N 48°51' W 123°30'0 0.0
2017-Jan-17 03:31N 48°51' W 123°30'0 0.0
2017-Jan-17 02:25N 48°51' W 123°30'0 0.0
2017-Jan-17 01:31N 48°51' W 123°30'0 0.0
2017-Jan-17 00:31N 48°51' W 123°30'0 0.0
2017-Jan-16 22:16N 48°51' W 123°30'0 0.0
2017-Jan-16 21:22N 48°51' W 123°30'0 0.0
2017-Jan-16 20:22N 48°51' W 123°30'  
Track history (hours):
 
Tides and Currents Weather Stations Pressure Air Temp Water Temp Dewpoint Dewpoint Depression Visibility Wind Speed Wind Dir Waves Ship Positions

Coastal Messenger

Last reported at 2017-Jan-22 22:32 UTC. Time now 2017-Jan-23 06:26 UTC.
Position N 48°35' W 122°56'.

Length 16 m.

Type: Pleasure craft. MMSI: 316016342.

Date/timePositionNaut miles runAvg speedWind from/ knotsBaromVisibWave heightAir tempDewpointWater temp
2017-Jan-22 22:32N 48°35' W 122°56'0 0.0
2017-Jan-22 20:32N 48°35' W 122°56'2 0.6
2017-Jan-22 17:22N 48°36' W 122°58'4 4.7
2017-Jan-22 16:33N 48°32' W 123°01'0 0.1
2017-Jan-22 15:32N 48°32' W 123°01'0 0.0
2017-Jan-22 14:32N 48°32' W 123°01'0 0.0
2017-Jan-22 13:32N 48°32' W 123°01'0 0.0
2017-Jan-22 12:32N 48°32' W 123°01'0 0.0
2017-Jan-22 11:32N 48°32' W 123°01'0 0.0
2017-Jan-22 10:32N 48°32' W 123°01'0 0.0
2017-Jan-22 09:32N 48°32' W 123°01'0 0.0
2017-Jan-22 08:32N 48°32' W 123°01'0 0.0
2017-Jan-22 07:32N 48°32' W 123°01'0 0.0
2017-Jan-22 06:32N 48°32' W 123°01'0 0.0
2017-Jan-22 05:32N 48°32' W 123°01'0 0.0
2017-Jan-22 04:32N 48°32' W 123°01'0 0.0
2017-Jan-22 03:32N 48°32' W 123°01'0 0.0
2017-Jan-22 02:32N 48°32' W 123°01'0 0.0
2017-Jan-22 01:32N 48°32' W 123°01'0 0.0
2017-Jan-22 00:32N 48°32' W 123°01'0 0.0
2017-Jan-21 23:32N 48°32' W 123°01'0 0.0
2017-Jan-21 22:32N 48°32' W 123°01'0 0.0
2017-Jan-21 21:32N 48°32' W 123°01'0 0.0
2017-Jan-21 20:32N 48°32' W 123°01'0 0.0
2017-Jan-21 19:32N 48°32' W 123°01'0 0.0
2017-Jan-21 18:32N 48°32' W 123°01'0 0.0
2017-Jan-21 17:32N 48°32' W 123°01'0 0.0
2017-Jan-21 16:32N 48°32' W 123°01'0 0.0
2017-Jan-21 15:32N 48°32' W 123°01'0 0.0
2017-Jan-21 14:32N 48°32' W 123°01'0 0.0
2017-Jan-21 13:29N 48°32' W 123°01'0 0.0
2017-Jan-21 12:32N 48°32' W 123°01'0 0.0
2017-Jan-21 11:32N 48°32' W 123°01'0 0.0
2017-Jan-21 10:32N 48°32' W 123°01'0 0.0
2017-Jan-21 09:32N 48°32' W 123°01'0 0.0
2017-Jan-21 08:32N 48°32' W 123°01'0 0.0
2017-Jan-21 07:32N 48°32' W 123°01'0 0.0
2017-Jan-21 06:32N 48°32' W 123°01'0 0.0
2017-Jan-21 05:29N 48°32' W 123°01'0 0.0
2017-Jan-21 04:32N 48°32' W 123°01'0 0.0
2017-Jan-21 03:32N 48°32' W 123°01'0 0.0
2017-Jan-21 02:32N 48°32' W 123°01'0 0.0
2017-Jan-21 01:32N 48°32' W 123°01'0 0.0
2017-Jan-21 00:32N 48°32' W 123°01'0 0.0
2017-Jan-20 23:33N 48°32' W 123°01'0 0.0
2017-Jan-20 22:33N 48°32' W 123°01'0 0.0
2017-Jan-20 21:30N 48°32' W 123°01'0 0.0
2017-Jan-20 20:33N 48°32' W 123°01'0 0.0
2017-Jan-20 19:33N 48°32' W 123°01'0 0.0
2017-Jan-20 18:33N 48°32' W 123°01'0 0.0
2017-Jan-20 17:33N 48°32' W 123°01'0 0.0
2017-Jan-20 16:33N 48°32' W 123°01'0 0.0
2017-Jan-20 15:33N 48°32' W 123°01'0 0.0
2017-Jan-20 14:33N 48°32' W 123°01'0 0.0
2017-Jan-20 13:33N 48°32' W 123°01'0 0.0
2017-Jan-20 12:33N 48°32' W 123°01'0 0.0
2017-Jan-20 11:33N 48°32' W 123°01'0 0.0
2017-Jan-20 10:33N 48°32' W 123°01'0 0.0
2017-Jan-20 09:33N 48°32' W 123°01'0 0.0
2017-Jan-20 08:33N 48°32' W 123°01'0 0.0
2017-Jan-20 07:33N 48°32' W 123°01'0 0.0
2017-Jan-20 06:33N 48°32' W 123°01'0 0.0
2017-Jan-20 05:30N 48°32' W 123°01'0 0.0
2017-Jan-20 04:33N 48°32' W 123°01'0 0.0
2017-Jan-20 03:33N 48°32' W 123°01'0 0.0
2017-Jan-20 02:33N 48°32' W 123°01'0 0.0
2017-Jan-20 01:33N 48°32' W 123°01'0 0.0
2017-Jan-20 00:33N 48°32' W 123°01'0 0.0
2017-Jan-19 23:33N 48°32' W 123°01'0 0.0
2017-Jan-19 22:33N 48°32' W 123°01'0 0.0
2017-Jan-19 21:33N 48°32' W 123°01'0 0.1
2017-Jan-19 20:32N 48°32' W 123°01'1 1.5
2017-Jan-19 19:32N 48°34' W 123°01'26 0.6
2017-Jan-17 21:30N 48°51' W 123°30'0 0.0
2017-Jan-17 20:30N 48°51' W 123°30'0 0.0
2017-Jan-17 19:30N 48°51' W 123°30'0 0.0
2017-Jan-17 18:24N 48°51' W 123°30'0 0.0
2017-Jan-17 17:24N 48°51' W 123°30'0 0.0
2017-Jan-17 16:06N 48°51' W 123°30'0 0.0
2017-Jan-17 15:30N 48°51' W 123°30'0 0.0
2017-Jan-17 14:33N 48°51' W 123°30'0 0.0
2017-Jan-17 13:30N 48°51' W 123°30'0 0.0
2017-Jan-17 12:30N 48°51' W 123°30'0 0.0
2017-Jan-17 11:30N 48°51' W 123°30'0 0.0
2017-Jan-17 10:30N 48°51' W 123°30'0 0.0
2017-Jan-17 09:30N 48°51' W 123°30'0 0.0
2017-Jan-17 08:30N 48°51' W 123°30'0 0.0
2017-Jan-17 07:31N 48°51' W 123°30'0 0.0
2017-Jan-17 06:30N 48°51' W 123°30'0 0.0
2017-Jan-17 05:30N 48°51' W 123°30'0 0.0
2017-Jan-17 04:31N 48°51' W 123°30'0 0.0
2017-Jan-17 03:31N 48°51' W 123°30'0 0.0
2017-Jan-17 02:25N 48°51' W 123°30'0 0.0
2017-Jan-17 01:31N 48°51' W 123°30'0 0.0
2017-Jan-17 00:31N 48°51' W 123°30'0 0.0
2017-Jan-16 22:16N 48°51' W 123°30'0 0.0
2017-Jan-16 21:22N 48°51' W 123°30'0 0.0
2017-Jan-16 20:22N 48°51' W 123°30'  

Dump ship's entire track history